createdAt,value
2022-11-18T00:01:32.767Z,19.38
2022-11-18T00:04:34.747Z,19.38
2022-11-18T00:07:36.856Z,19.44
2022-11-18T00:10:40.238Z,19.38
2022-11-18T00:14:01.043Z,19.38
2022-11-18T00:17:05.002Z,19.38
2022-11-18T00:20:07.398Z,19.38
2022-11-18T00:23:09.395Z,19.38
2022-11-18T00:26:14.923Z,19.38
2022-11-18T00:29:17.589Z,19.38
2022-11-18T00:32:19.853Z,19.31
2022-11-18T00:35:21.915Z,19.31
2022-11-18T00:38:24.761Z,19.31
2022-11-18T00:41:46.754Z,19.31
2022-11-18T00:44:48.786Z,19.31
2022-11-18T00:47:50.823Z,19.31
2022-11-18T00:50:57.220Z,19.25
2022-11-18T00:53:59.246Z,19.25
2022-11-18T00:57:01.315Z,19.25
2022-11-18T01:00:04.484Z,19.25
2022-11-18T01:03:06.505Z,19.25
2022-11-18T01:06:08.770Z,19.25
2022-11-18T01:09:10.815Z,19.25
2022-11-18T01:12:31.561Z,19.25
2022-11-18T01:15:41.949Z,19.25
2022-11-18T01:18:43.936Z,19.25
2022-11-18T01:21:46.034Z,19.25
2022-11-18T01:24:48.180Z,19.25
2022-11-18T01:27:50.203Z,19.19
2022-11-18T01:30:52.244Z,19.19
2022-11-18T01:33:54.327Z,19.25
2022-11-18T01:36:58.035Z,19.19
2022-11-18T01:40:00.058Z,19.19
2022-11-18T01:43:02.498Z,19.19
2022-11-18T01:46:04.513Z,19.19
2022-11-18T01:49:10.526Z,19.19
2022-11-18T01:52:13.397Z,19.19
2022-11-18T01:55:21.852Z,19.19
2022-11-18T01:58:44.292Z,19.19
2022-11-18T02:01:47.144Z,19.19
2022-11-18T02:04:52.150Z,19.19
2022-11-18T02:07:54.233Z,19.13
2022-11-18T02:10:56.225Z,19.13
2022-11-18T02:14:00.710Z,19.13
2022-11-18T02:17:36.999Z,19.13
2022-11-18T02:20:47.801Z,19.13
2022-11-18T02:24:05.810Z,19.13
2022-11-18T02:27:10.321Z,19.06
2022-11-18T02:30:15.194Z,19.13
2022-11-18T02:33:49.521Z,19.13
2022-11-18T02:37:02.280Z,19.13
2022-11-18T02:40:12.820Z,19.06
2022-11-18T02:43:26.745Z,19.06
2022-11-18T02:46:35.229Z,19.06
2022-11-18T02:49:44.749Z,19.06
2022-11-18T02:52:48.650Z,19.06
2022-11-18T02:55:52.515Z,19.06
2022-11-18T02:58:54.570Z,19.06
2022-11-18T03:01:56.717Z,19.00
2022-11-18T03:04:59.238Z,19.00
2022-11-18T03:08:08.483Z,19.00
2022-11-18T03:11:22.886Z,19.00
2022-11-18T03:14:32.522Z,19.00
2022-11-18T03:17:58.810Z,19.00
2022-11-18T03:21:08.058Z,19.00
2022-11-18T03:24:26.896Z,19.00
2022-11-18T03:27:38.112Z,19.00
2022-11-18T03:30:48.427Z,18.94
2022-11-18T03:34:04.149Z,18.94
2022-11-18T03:37:10.711Z,18.94
2022-11-18T03:40:21.014Z,18.94
2022-11-18T03:43:26.530Z,18.94
2022-11-18T03:46:41.842Z,18.94
2022-11-18T03:49:50.749Z,18.88
2022-11-18T03:52:54.103Z,18.88
2022-11-18T03:56:03.500Z,18.94
2022-11-18T03:59:29.245Z,18.94
2022-11-18T04:02:31.357Z,18.88
2022-11-18T04:05:37.663Z,18.88
2022-11-18T04:08:43.631Z,18.88
2022-11-18T04:12:02.632Z,18.88
2022-11-18T04:15:05.147Z,18.88
2022-11-18T04:18:07.647Z,18.88
2022-11-18T04:21:09.645Z,18.88
2022-11-18T04:24:11.834Z,18.88
2022-11-18T04:27:14.175Z,18.88
2022-11-18T04:30:16.375Z,18.88
2022-11-18T04:33:18.383Z,18.81
2022-11-18T04:36:20.401Z,18.88
2022-11-18T04:39:22.530Z,18.88
2022-11-18T04:42:24.580Z,18.88
2022-11-18T04:45:26.586Z,18.88
2022-11-18T04:48:28.598Z,18.88
2022-11-18T04:51:30.577Z,18.88
2022-11-18T04:54:32.638Z,18.81
2022-11-18T04:57:34.673Z,18.88
2022-11-18T05:00:36.685Z,18.88
2022-11-18T05:03:38.676Z,18.88
2022-11-18T05:06:40.810Z,18.81
2022-11-18T05:09:43.042Z,18.88
2022-11-18T05:12:52.433Z,18.88
2022-11-18T05:15:54.443Z,18.88
2022-11-18T05:18:56.468Z,18.88
2022-11-18T05:21:59.073Z,18.81
2022-11-18T05:25:01.179Z,18.88
2022-11-18T05:28:03.301Z,18.88
2022-11-18T05:31:10.053Z,18.88
2022-11-18T05:34:12.634Z,18.88
2022-11-18T05:37:14.720Z,18.94
2022-11-18T05:40:17.051Z,19.06
2022-11-18T05:43:19.054Z,19.13
2022-11-18T05:46:21.103Z,19.25
2022-11-18T05:49:23.549Z,19.44
2022-11-18T05:52:25.750Z,19.44
2022-11-18T05:55:40.607Z,19.56
2022-11-18T05:58:42.615Z,19.56
2022-11-18T06:02:20.252Z,19.56
2022-11-18T06:05:24.961Z,19.56
2022-11-18T06:08:31.869Z,19.63
2022-11-18T06:11:42.261Z,19.69
2022-11-18T06:14:49.302Z,19.75
2022-11-18T06:17:56.911Z,19.88
2022-11-18T06:21:03.051Z,19.88
2022-11-18T06:24:07.094Z,19.94
2022-11-18T06:27:09.313Z,19.94
2022-11-18T06:30:11.970Z,19.94
2022-11-18T06:33:14.092Z,19.94
2022-11-18T06:36:16.095Z,19.94
2022-11-18T06:39:18.276Z,19.94
2022-11-18T06:42:38.866Z,19.94
2022-11-18T06:46:06.067Z,19.88
2022-11-18T06:49:09.856Z,19.94
2022-11-18T06:52:11.870Z,19.94
2022-11-18T06:55:14.047Z,19.88
2022-11-18T06:58:16.095Z,19.88
2022-11-18T07:01:23.555Z,19.88
2022-11-18T07:04:25.623Z,19.81
2022-11-18T07:07:27.696Z,19.88
2022-11-18T07:10:29.804Z,19.88
2022-11-18T07:13:33.547Z,19.94
2022-11-18T07:16:36.646Z,20.06
2022-11-18T07:19:39.938Z,20.06
2022-11-18T07:22:41.953Z,20.19
2022-11-18T07:25:45.429Z,20.19
2022-11-18T07:28:47.836Z,20.31
2022-11-18T07:31:49.859Z,20.38
2022-11-18T07:34:51.908Z,20.31
2022-11-18T07:37:53.951Z,20.31
2022-11-18T07:41:02.346Z,20.25
2022-11-18T07:44:05.147Z,20.19
2022-11-18T07:47:07.128Z,20.31
2022-11-18T07:50:09.306Z,20.31
2022-11-18T07:53:11.420Z,20.31
2022-11-18T07:56:14.642Z,20.31
2022-11-18T07:59:17.096Z,20.38
2022-11-18T08:02:19.340Z,20.38
2022-11-18T08:05:21.421Z,20.44
2022-11-18T08:08:23.438Z,20.44
2022-11-18T08:11:25.422Z,20.44
2022-11-18T08:14:28.650Z,20.44
2022-11-18T08:17:30.710Z,20.44
2022-11-18T08:20:35.122Z,20.44
2022-11-18T08:23:41.720Z,20.44
2022-11-18T08:26:44.410Z,20.50
2022-11-18T08:29:46.560Z,20.44
2022-11-18T08:32:48.649Z,20.44
2022-11-18T08:35:50.883Z,20.38
2022-11-18T08:38:52.888Z,20.44
2022-11-18T08:41:57.759Z,20.44
2022-11-18T08:45:00.130Z,20.44
2022-11-18T08:48:02.408Z,20.38
2022-11-18T08:51:04.827Z,20.44
2022-11-18T08:54:06.855Z,20.38
2022-11-18T08:57:08.949Z,20.38
2022-11-18T09:00:11.887Z,20.44
2022-11-18T09:03:13.985Z,20.38
2022-11-18T09:06:22.535Z,20.38
2022-11-18T09:09:24.698Z,20.38
2022-11-18T09:12:26.770Z,20.31
2022-11-18T09:15:29.678Z,20.38
2022-11-18T09:18:32.096Z,20.38
2022-11-18T09:21:38.168Z,20.38
2022-11-18T09:24:43.480Z,20.38
2022-11-18T09:27:45.538Z,20.44
2022-11-18T09:30:47.555Z,20.44
2022-11-18T09:33:49.609Z,20.44
2022-11-18T09:36:55.707Z,20.44
2022-11-18T09:39:57.741Z,20.50
2022-11-18T09:43:11.434Z,20.50
2022-11-18T09:46:30.838Z,20.50
2022-11-18T09:49:37.055Z,20.50
2022-11-18T09:52:55.787Z,20.50
2022-11-18T09:55:57.916Z,20.50
2022-11-18T09:58:59.967Z,20.50
2022-11-18T10:02:40.312Z,20.44
2022-11-18T10:05:47.806Z,20.44
2022-11-18T10:09:26.664Z,20.44
2022-11-18T10:12:52.056Z,20.44
2022-11-18T10:16:24.232Z,20.44
2022-11-18T10:19:32.496Z,20.44
2022-11-18T10:22:56.131Z,20.44
2022-11-18T10:25:58.623Z,20.44
2022-11-18T10:29:00.957Z,20.44
2022-11-18T10:32:15.109Z,20.44
2022-11-18T10:35:28.954Z,20.44
2022-11-18T10:38:31.047Z,20.44
2022-11-18T10:41:49.140Z,20.44
2022-11-18T10:44:51.206Z,20.44
2022-11-18T10:48:09.540Z,20.44
2022-11-18T10:51:23.587Z,20.44
2022-11-18T10:54:25.612Z,20.44
2022-11-18T10:57:27.979Z,20.44
2022-11-18T11:00:41.310Z,20.38
2022-11-18T11:03:51.206Z,20.44
2022-11-18T11:06:53.744Z,20.44
2022-11-18T11:10:07.784Z,20.38
2022-11-18T11:13:15.614Z,20.38
2022-11-18T11:16:23.528Z,20.38
2022-11-18T11:19:47.036Z,20.38
2022-11-18T11:22:49.409Z,20.38
2022-11-18T11:30:08.630Z,20.38
2022-11-18T11:33:27.218Z,20.38
2022-11-18T11:37:04.199Z,20.44
2022-11-18T11:40:25.780Z,20.31
2022-11-18T11:43:47.501Z,20.38
2022-11-18T11:47:16.094Z,20.38
2022-11-18T11:50:32.852Z,20.38
2022-11-18T11:54:09.414Z,20.31
2022-11-18T11:57:28.866Z,20.44
2022-11-18T12:00:35.163Z,20.44
2022-11-18T12:03:48.679Z,20.44
2022-11-18T12:06:55.943Z,20.44
2022-11-18T12:10:22.262Z,20.50
2022-11-18T12:13:43.468Z,20.56
2022-11-18T12:16:55.080Z,20.63
2022-11-18T12:19:57.125Z,20.81
2022-11-18T12:23:14.148Z,20.69
2022-11-18T12:26:34.883Z,20.69
2022-11-18T12:29:51.060Z,20.69
2022-11-18T12:32:56.798Z,20.69
2022-11-18T12:35:58.995Z,20.63
2022-11-18T12:39:25.769Z,20.75
2022-11-18T12:43:04.236Z,20.81
2022-11-18T12:46:06.620Z,20.75
2022-11-18T12:49:37.101Z,20.69
2022-11-18T12:52:42.222Z,20.56
2022-11-18T12:55:44.537Z,20.56
2022-11-18T12:58:51.710Z,20.63
2022-11-18T13:02:15.563Z,20.56
2022-11-18T13:05:23.283Z,20.38
2022-11-18T13:08:26.488Z,20.63
2022-11-18T13:11:45.967Z,20.75
2022-11-18T13:15:07.246Z,20.94
2022-11-18T13:18:18.662Z,20.94
2022-11-18T13:21:41.789Z,21.06
2022-11-18T13:24:46.813Z,21.19
2022-11-18T13:28:20.897Z,21.31
2022-11-18T13:32:02.160Z,21.31
2022-11-18T13:35:23.251Z,21.31
2022-11-18T13:38:28.490Z,21.44
2022-11-18T13:41:33.697Z,21.44
2022-11-18T13:44:38.988Z,21.44
2022-11-18T13:47:47.414Z,21.44
2022-11-18T13:50:55.097Z,21.38
2022-11-18T13:53:57.400Z,21.13
2022-11-18T13:56:59.520Z,20.88
2022-11-18T14:00:06.927Z,20.94
2022-11-18T14:03:32.549Z,20.88
2022-11-18T14:06:37.364Z,20.81
2022-11-18T14:09:57.436Z,20.75
2022-11-18T14:13:01.272Z,20.75
2022-11-18T14:16:20.537Z,20.75
2022-11-18T14:19:30.709Z,20.69
2022-11-18T14:22:32.887Z,20.69
2022-11-18T14:25:36.761Z,20.63
2022-11-18T14:28:39.408Z,20.63
2022-11-18T14:31:43.049Z,20.69
2022-11-18T14:34:45.171Z,20.69
2022-11-18T14:37:47.208Z,20.63
2022-11-18T14:41:01.231Z,20.69
2022-11-18T14:44:04.429Z,20.69
2022-11-18T14:47:27.555Z,20.69
2022-11-18T14:50:29.586Z,20.69
2022-11-18T14:53:31.708Z,20.63
2022-11-18T14:56:35.296Z,20.69
2022-11-18T14:59:37.348Z,20.69
2022-11-18T15:02:39.576Z,20.69
2022-11-18T15:05:41.678Z,20.75
2022-11-18T15:08:46.112Z,20.69
2022-11-18T15:11:48.209Z,20.63
2022-11-18T15:14:50.282Z,20.63
2022-11-18T15:17:54.101Z,20.75
2022-11-18T15:20:56.413Z,20.56
2022-11-18T15:23:58.483Z,20.56
2022-11-18T15:27:05.032Z,20.56
2022-11-18T15:30:07.900Z,20.50
2022-11-18T15:33:09.942Z,20.44
2022-11-18T15:36:17.933Z,20.44
2022-11-18T15:39:19.997Z,20.38
2022-11-18T15:42:23.442Z,20.44
2022-11-18T15:45:25.740Z,20.44
2022-11-18T15:48:27.838Z,20.38
2022-11-18T15:51:30.764Z,20.38
2022-11-18T15:54:32.915Z,20.44
2022-11-18T15:57:35.000Z,20.44
2022-11-18T16:00:37.042Z,20.38
2022-11-18T16:03:39.131Z,20.31
2022-11-18T16:06:43.551Z,20.38
2022-11-18T16:10:04.248Z,20.38
2022-11-18T16:13:06.348Z,20.38
2022-11-18T16:16:08.437Z,20.38
2022-11-18T16:19:13.411Z,20.31
2022-11-18T16:22:15.487Z,20.31
2022-11-18T16:25:17.606Z,20.38
2022-11-18T16:28:19.898Z,20.31
2022-11-18T16:31:40.010Z,20.31
2022-11-18T16:34:42.122Z,20.31
2022-11-18T16:37:44.180Z,20.25
2022-11-18T16:40:46.203Z,20.25
2022-11-18T16:43:50.035Z,20.25
2022-11-18T16:46:53.785Z,20.19
2022-11-18T16:49:55.954Z,20.25
2022-11-18T16:52:58.256Z,20.19
2022-11-18T16:56:04.228Z,20.19
2022-11-18T16:59:11.582Z,20.19
2022-11-18T17:02:14.885Z,20.19
2022-11-18T17:05:17.346Z,20.19
2022-11-18T17:08:19.417Z,20.19
2022-11-18T17:11:21.868Z,20.13
2022-11-18T17:14:24.563Z,20.13
2022-11-18T17:17:26.634Z,20.13
2022-11-18T17:20:28.689Z,20.13
2022-11-18T17:23:30.966Z,20.13
2022-11-18T17:26:33.080Z,20.13
2022-11-18T17:29:35.196Z,20.13
2022-11-18T17:32:37.936Z,20.13
2022-11-18T17:35:39.965Z,20.06
2022-11-18T17:38:44.433Z,20.06
2022-11-18T17:42:05.080Z,20.06
2022-11-18T17:45:07.900Z,20.06
2022-11-18T17:48:09.949Z,20.06
2022-11-18T17:51:12.002Z,20.06
2022-11-18T17:54:14.420Z,20.06
2022-11-18T17:57:16.477Z,20.06
2022-11-18T18:00:19.645Z,20.00
2022-11-18T18:03:21.777Z,20.06
2022-11-18T18:06:24.066Z,20.00
2022-11-18T18:09:30.696Z,20.00
2022-11-18T18:12:58.046Z,20.00
2022-11-18T18:16:01.498Z,20.00
2022-11-18T18:19:05.488Z,20.00
2022-11-18T18:22:07.767Z,20.00
2022-11-18T18:25:11.985Z,19.94
2022-11-18T18:28:14.095Z,19.94
2022-11-18T18:31:17.386Z,20.00
2022-11-18T18:34:19.659Z,19.94
2022-11-18T18:37:21.818Z,19.94
2022-11-18T18:40:23.844Z,19.94
2022-11-18T18:43:25.918Z,19.94
2022-11-18T18:46:29.133Z,19.94
2022-11-18T18:49:31.576Z,20.06
2022-11-18T18:52:33.646Z,20.00
2022-11-18T18:55:39.235Z,20.00
2022-11-18T18:58:44.051Z,19.94
2022-11-18T19:01:46.372Z,20.00
2022-11-18T19:04:48.465Z,19.94
2022-11-18T19:07:50.683Z,19.94
2022-11-18T19:10:52.769Z,19.94
2022-11-18T19:13:55.262Z,19.94
2022-11-18T19:16:57.577Z,19.94
2022-11-18T19:20:18.236Z,19.88
2022-11-18T19:23:20.567Z,19.88
2022-11-18T19:26:22.682Z,19.88
2022-11-18T19:29:25.886Z,19.88
2022-11-18T19:32:28.809Z,19.88
2022-11-18T19:35:30.813Z,19.88
2022-11-18T19:38:34.819Z,19.88
2022-11-18T19:41:36.832Z,19.88
2022-11-18T19:44:39.418Z,19.88
2022-11-18T19:47:41.499Z,19.81
2022-11-18T19:50:43.494Z,19.88
2022-11-18T19:53:45.541Z,19.88
2022-11-18T19:56:47.637Z,19.88
2022-11-18T19:59:49.632Z,19.81
2022-11-18T20:02:53.511Z,19.81
2022-11-18T20:05:55.824Z,19.75
2022-11-18T20:08:58.210Z,19.81
2022-11-18T20:12:00.195Z,19.81
2022-11-18T20:15:02.282Z,19.81
2022-11-18T20:18:04.467Z,19.81
2022-11-18T20:21:08.857Z,19.81
2022-11-18T20:24:15.841Z,19.81
2022-11-18T20:27:18.730Z,19.75
2022-11-18T20:30:20.923Z,19.75
2022-11-18T20:33:23.054Z,19.75
2022-11-18T20:36:27.864Z,19.75
2022-11-18T20:39:29.957Z,19.75
2022-11-18T20:42:52.863Z,19.75
2022-11-18T20:45:55.922Z,19.75
2022-11-18T20:48:57.927Z,19.69
2022-11-18T20:51:59.996Z,19.69
2022-11-18T20:55:05.863Z,19.69
2022-11-18T20:58:08.563Z,19.69
2022-11-18T21:01:14.369Z,19.69
2022-11-18T21:04:16.435Z,19.69
2022-11-18T21:07:18.482Z,19.69
2022-11-18T21:10:21.173Z,19.69
2022-11-18T21:13:41.733Z,19.69
2022-11-18T21:16:44.400Z,19.69
2022-11-18T21:19:48.515Z,19.69
2022-11-18T21:22:50.786Z,19.69
2022-11-18T21:25:52.873Z,19.69
2022-11-18T21:28:56.431Z,19.69
2022-11-18T21:32:02.476Z,19.69
2022-11-18T21:35:04.836Z,19.69
2022-11-18T21:38:07.043Z,19.63
2022-11-18T21:41:09.796Z,19.69
2022-11-18T21:44:13.668Z,19.63
2022-11-18T21:47:15.677Z,19.63
2022-11-18T21:50:17.835Z,19.63
2022-11-18T21:53:20.056Z,19.63
2022-11-18T21:56:25.154Z,19.56
2022-11-18T21:59:27.216Z,19.63
2022-11-18T22:02:29.239Z,19.63
2022-11-18T22:05:31.263Z,19.63
2022-11-18T22:08:35.920Z,19.56
2022-11-18T22:11:38.016Z,19.63
2022-11-18T22:14:41.084Z,19.63
2022-11-18T22:17:43.298Z,19.56
2022-11-18T22:20:45.291Z,19.56
2022-11-18T22:23:47.860Z,19.56
2022-11-18T22:26:49.914Z,19.56
2022-11-18T22:29:51.953Z,19.56
2022-11-18T22:32:53.962Z,19.50
2022-11-18T22:36:06.707Z,19.50
2022-11-18T22:39:08.811Z,19.50
2022-11-18T22:42:29.560Z,19.56
2022-11-18T22:45:31.605Z,19.56
2022-11-18T22:48:34.455Z,19.50
2022-11-18T22:51:37.401Z,19.50
2022-11-18T22:54:40.210Z,19.50
2022-11-18T22:57:44.471Z,19.50
2022-11-18T23:00:47.761Z,19.50
2022-11-18T23:03:52.886Z,19.50
2022-11-18T23:06:54.901Z,19.44
2022-11-18T23:09:56.942Z,19.44
2022-11-18T23:13:17.990Z,19.50
2022-11-18T23:16:20.123Z,19.44
2022-11-18T23:19:22.464Z,19.50
2022-11-18T23:22:24.616Z,19.44
2022-11-18T23:25:26.641Z,19.44
2022-11-18T23:28:28.719Z,19.44
2022-11-18T23:31:30.740Z,19.38
2022-11-18T23:34:32.759Z,19.44
2022-11-18T23:37:34.749Z,19.38
2022-11-18T23:40:36.762Z,19.38
2022-11-18T23:43:39.447Z,19.38
2022-11-18T23:46:41.814Z,19.38
2022-11-18T23:49:43.940Z,19.38
2022-11-18T23:52:45.969Z,19.38
2022-11-18T23:55:48.642Z,19.31
2022-11-18T23:58:52.359Z,19.31
